sensor_id;sensor_type;location;lat;lon;timestamp;pressure;altitude;pressure_sealevel;temperature;humidity
77159;BME280;66129;45.890;13.714;2023-05-10T00:02:07;100782.81;;;15.02;48.39
77159;BME280;66129;45.890;13.714;2023-05-10T00:04:32;100794.03;;;15.06;48.93
77159;BME280;66129;45.890;13.714;2023-05-10T00:06:58;100806.94;;;15.16;48.85
77159;BME280;66129;45.890;13.714;2023-05-10T00:09:23;100789.69;;;15.06;49.05
77159;BME280;66129;45.890;13.714;2023-05-10T00:11:49;100788.00;;;15.14;48.13
77159;BME280;66129;45.890;13.714;2023-05-10T00:14:14;100727.69;;;14.75;48.60
77159;BME280;66129;45.890;13.714;2023-05-10T00:16:40;100748.38;;;14.91;48.99
77159;BME280;66129;45.890;13.714;2023-05-10T00:19:06;100746.63;;;14.81;49.04
77159;BME280;66129;45.890;13.714;2023-05-10T00:21:31;100758.69;;;14.85;49.30
77159;BME280;66129;45.890;13.714;2023-05-10T00:23:58;100773.34;;;14.92;49.63
77159;BME280;66129;45.890;13.714;2023-05-10T00:26:24;100755.25;;;14.86;49.26
77159;BME280;66129;45.890;13.714;2023-05-10T00:28:49;100775.06;;;14.99;49.35
77159;BME280;66129;45.890;13.714;2023-05-10T00:31:15;100781.09;;;14.98;49.48
77159;BME280;66129;45.890;13.714;2023-05-10T00:33:40;100775.06;;;14.95;49.77
77159;BME280;66129;45.890;13.714;2023-05-10T00:36:06;100750.94;;;14.85;49.62
77159;BME280;66129;45.890;13.714;2023-05-10T00:38:33;100753.53;;;14.88;49.63
77159;BME280;66129;45.890;13.714;2023-05-10T00:40:58;100751.81;;;14.90;50.07
77159;BME280;66129;45.890;13.714;2023-05-10T00:43:24;100711.34;;;14.65;49.68
77159;BME280;66129;45.890;13.714;2023-05-10T00:45:50;100761.31;;;14.94;50.22
77159;BME280;66129;45.890;13.714;2023-05-10T00:48:15;100750.97;;;14.91;50.32
77159;BME280;66129;45.890;13.714;2023-05-10T00:50:41;100731.16;;;14.84;50.11
77159;BME280;66129;45.890;13.714;2023-05-10T00:53:07;100757.84;;;15.01;50.13
77159;BME280;66129;45.890;13.714;2023-05-10T00:55:32;100716.53;;;14.89;50.42
77159;BME280;66129;45.890;13.714;2023-05-10T00:57:58;100735.50;;;14.97;50.63
77159;BME280;66129;45.890;13.714;2023-05-10T01:00:24;100723.41;;;14.84;50.92
77159;BME280;66129;45.890;13.714;2023-05-10T01:02:51;100720.84;;;14.84;50.48
77159;BME280;66129;45.890;13.714;2023-05-10T01:05:17;100737.19;;;14.91;51.03
77159;BME280;66129;45.890;13.714;2023-05-10T01:07:43;100731.19;;;14.90;51.37
77159;BME280;66129;45.890;13.714;2023-05-10T01:10:09;100686.41;;;14.72;51.03
77159;BME280;66129;45.890;13.714;2023-05-10T01:12:37;100671.75;;;14.56;51.25
77159;BME280;66129;45.890;13.714;2023-05-10T01:15:07;100701.91;;;14.82;51.28
77159;BME280;66129;45.890;13.714;2023-05-10T01:17:38;100724.28;;;14.97;51.29
77159;BME280;66129;45.890;13.714;2023-05-10T01:20:05;100662.31;;;14.59;51.14
77159;BME280;66129;45.890;13.714;2023-05-10T01:31:30;100717.44;;;15.05;52.02
77159;BME280;66129;45.890;13.714;2023-05-10T01:34:12;100692.47;;;14.96;52.06
77159;BME280;66129;45.890;13.714;2023-05-10T01:36:48;100714.84;;;15.05;52.34
77159;BME280;66129;45.890;13.714;2023-05-10T01:41:54;100677.81;;;14.91;52.07
77159;BME280;66129;45.890;13.714;2023-05-10T01:44:37;100708.78;;;15.01;52.45
77159;BME280;66129;45.890;13.714;2023-05-10T01:47:09;100688.16;;;14.95;52.08
77159;BME280;66129;45.890;13.714;2023-05-10T01:49:49;100635.66;;;14.60;52.41
77159;BME280;66129;45.890;13.714;2023-05-10T01:52:18;100680.41;;;14.95;52.88
77159;BME280;66129;45.890;13.714;2023-05-10T01:54:50;100701.06;;;15.10;52.50
77159;BME280;66129;45.890;13.714;2023-05-10T01:57:20;100685.59;;;14.95;52.54
77159;BME280;66129;45.890;13.714;2023-05-10T01:59:50;100624.47;;;14.61;52.68
77159;BME280;66129;45.890;13.714;2023-05-10T02:02:20;100658.03;;;14.76;52.61
77159;BME280;66129;45.890;13.714;2023-05-10T02:04:47;100650.28;;;14.76;52.89
77159;BME280;66129;45.890;13.714;2023-05-10T02:07:15;100701.94;;;14.94;53.38
77159;BME280;66129;45.890;13.714;2023-05-10T02:09:44;100636.50;;;14.59;52.84
77159;BME280;66129;45.890;13.714;2023-05-10T02:12:13;100670.94;;;14.82;53.04
77159;BME280;66129;45.890;13.714;2023-05-10T02:14:41;100681.28;;;14.91;53.14
77159;BME280;66129;45.890;13.714;2023-05-10T02:17:08;100640.81;;;14.66;53.01
77159;BME280;66129;45.890;13.714;2023-05-10T02:19:37;100684.69;;;14.92;53.70
77159;BME280;66129;45.890;13.714;2023-05-10T02:22:03;100633.94;;;14.59;53.18
77159;BME280;66129;45.890;13.714;2023-05-10T02:24:32;100634.81;;;14.64;53.31
77159;BME280;66129;45.890;13.714;2023-05-10T02:26:59;100644.28;;;14.65;53.28
77159;BME280;66129;45.890;13.714;2023-05-10T02:29:26;100655.47;;;14.84;53.05
77159;BME280;66129;45.890;13.714;2023-05-10T02:31:53;100660.63;;;14.84;53.17
77159;BME280;66129;45.890;13.714;2023-05-10T02:34:21;100658.06;;;14.84;53.10
77159;BME280;66129;45.890;13.714;2023-05-10T02:36:47;100664.94;;;14.92;52.72
77159;BME280;66129;45.890;13.714;2023-05-10T02:39:14;100652.88;;;14.85;52.76
77159;BME280;66129;45.890;13.714;2023-05-10T02:41:42;100661.47;;;14.95;52.58
77159;BME280;66129;45.890;13.714;2023-05-10T02:44:09;100649.44;;;14.82;52.69
77159;BME280;66129;45.890;13.714;2023-05-10T02:46:36;100667.50;;;14.92;52.96
77159;BME280;66129;45.890;13.714;2023-05-10T02:49:02;100668.38;;;14.91;52.77
77159;BME280;66129;45.890;13.714;2023-05-10T02:51:31;100659.75;;;14.88;52.45
77159;BME280;66129;45.890;13.714;2023-05-10T02:54:01;100624.47;;;14.73;52.44
77159;BME280;66129;45.890;13.714;2023-05-10T02:56:32;100644.25;;;14.80;52.71
77159;BME280;66129;45.890;13.714;2023-05-10T02:58:58;100654.59;;;14.79;52.72
77159;BME280;66129;45.890;13.714;2023-05-10T03:01:24;100631.34;;;14.71;52.76
77159;BME280;66129;45.890;13.714;2023-05-10T03:03:49;100621.88;;;14.63;52.89
77159;BME280;66129;45.890;13.714;2023-05-10T03:06:14;100649.44;;;14.73;53.04
77159;BME280;66129;45.890;13.714;2023-05-10T03:08:42;100646.84;;;14.74;53.04
77159;BME280;66129;45.890;13.714;2023-05-10T03:14:16;100632.22;;;14.67;53.13
77159;BME280;66129;45.890;13.714;2023-05-10T03:16:47;100649.44;;;14.82;53.18
77159;BME280;66129;45.890;13.714;2023-05-10T03:19:26;100659.75;;;14.86;53.16
77159;BME280;66129;45.890;13.714;2023-05-10T03:21:53;100650.31;;;14.84;52.94
77159;BME280;66129;45.890;13.714;2023-05-10T03:24:26;100647.72;;;14.88;53.10
77159;BME280;66129;45.890;13.714;2023-05-10T03:26:55;100611.56;;;14.63;53.09
77159;BME280;66129;45.890;13.714;2023-05-10T03:29:22;100620.16;;;14.69;53.04
77159;BME280;66129;45.890;13.714;2023-05-10T03:31:50;100627.06;;;14.73;53.34
77159;BME280;66129;45.890;13.714;2023-05-10T03:34:16;100622.75;;;14.75;53.15
77159;BME280;66129;45.890;13.714;2023-05-10T03:36:42;100645.97;;;14.89;53.23
77159;BME280;66129;45.890;13.714;2023-05-10T03:39:08;100624.47;;;14.79;53.48
77159;BME280;66129;45.890;13.714;2023-05-10T03:41:34;100642.56;;;14.91;53.05
77159;BME280;66129;45.890;13.714;2023-05-10T03:43:59;100656.31;;;14.93;53.20
77159;BME280;66129;45.890;13.714;2023-05-10T03:46:25;100642.53;;;14.96;53.17
77159;BME280;66129;45.890;13.714;2023-05-10T03:48:50;100626.22;;;14.82;53.26
77159;BME280;66129;45.890;13.714;2023-05-10T03:51:15;100634.81;;;14.85;53.40
77159;BME280;66129;45.890;13.714;2023-05-10T03:53:41;100627.06;;;14.82;53.29
77159;BME280;66129;45.890;13.714;2023-05-10T03:56:06;100630.50;;;14.80;53.44
77159;BME280;66129;45.890;13.714;2023-05-10T03:58:32;100642.53;;;14.96;53.64
77159;BME280;66129;45.890;13.714;2023-05-10T04:00:57;100601.25;;;14.70;53.40
77159;BME280;66129;45.890;13.714;2023-05-10T04:03:22;100596.09;;;14.64;53.20
77159;BME280;66129;45.890;13.714;2023-05-10T04:05:48;100594.38;;;14.74;53.21
77159;BME280;66129;45.890;13.714;2023-05-10T04:08:14;100602.13;;;14.77;53.16
77159;BME280;66129;45.890;13.714;2023-05-10T04:10:41;100619.31;;;14.79;53.75
77159;BME280;66129;45.890;13.714;2023-05-10T04:13:07;100596.97;;;14.74;53.64
77159;BME280;66129;45.890;13.714;2023-05-10T04:15:32;100599.53;;;14.72;53.53
77159;BME280;66129;45.890;13.714;2023-05-10T04:17:57;100654.59;;;15.03;53.77
77159;BME280;66129;45.890;13.714;2023-05-10T04:20:23;100643.41;;;15.02;53.57
77159;BME280;66129;45.890;13.714;2023-05-10T04:22:48;100595.25;;;14.79;53.78
77159;BME280;66129;45.890;13.714;2023-05-10T04:25:14;100647.72;;;15.05;53.94
77159;BME280;66129;45.890;13.714;2023-05-10T04:27:42;100618.47;;;14.95;53.94
77159;BME280;66129;45.890;13.714;2023-05-10T04:30:08;100643.41;;;15.08;54.02
77159;BME280;66129;45.890;13.714;2023-05-10T04:32:33;100649.44;;;15.13;53.67
77159;BME280;66129;45.890;13.714;2023-05-10T04:34:59;100645.16;;;15.11;54.10
77159;BME280;66129;45.890;13.714;2023-05-10T04:37:24;100626.19;;;15.01;53.91
77159;BME280;66129;45.890;13.714;2023-05-10T04:39:50;100645.13;;;15.12;53.97
77159;BME280;66129;45.890;13.714;2023-05-10T04:42:15;100591.78;;;14.87;53.85
77159;BME280;66129;45.890;13.714;2023-05-10T04:44:41;100600.41;;;14.83;54.07
77159;BME280;66129;45.890;13.714;2023-05-10T04:47:06;100598.69;;;14.91;53.98
77159;BME280;66129;45.890;13.714;2023-05-10T04:49:32;100633.06;;;15.14;53.95
77159;BME280;66129;45.890;13.714;2023-05-10T04:51:57;100596.94;;;14.98;54.16
77159;BME280;66129;45.890;13.714;2023-05-10T04:54:23;100602.97;;;14.94;54.12
77159;BME280;66129;45.890;13.714;2023-05-10T04:56:58;100648.56;;;15.35;53.55
77159;BME280;66129;45.890;13.714;2023-05-10T04:59:26;100593.50;;;15.05;53.70
77159;BME280;66129;45.890;13.714;2023-05-10T05:01:59;100580.59;;;14.96;54.14
77159;BME280;66129;45.890;13.714;2023-05-10T05:04:24;100653.75;;;15.40;54.08
77159;BME280;66129;45.890;13.714;2023-05-10T05:06:50;100599.50;;;15.16;54.22
77159;BME280;66129;45.890;13.714;2023-05-10T05:09:15;100600.34;;;15.18;53.83
77159;BME280;66129;45.890;13.714;2023-05-10T05:11:41;100640.81;;;15.44;53.81
77159;BME280;66129;45.890;13.714;2023-05-10T05:14:06;100603.78;;;15.20;53.50
77159;BME280;66129;45.890;13.714;2023-05-10T05:16:39;100608.97;;;15.24;54.04
77159;BME280;66129;45.890;13.714;2023-05-10T05:19:05;100653.72;;;15.59;54.12
77159;BME280;66129;45.890;13.714;2023-05-10T05:21:36;100622.72;;;15.38;53.88
77159;BME280;66129;45.890;13.714;2023-05-10T05:24:02;100604.66;;;15.19;53.90
77159;BME280;66129;45.890;13.714;2023-05-10T05:26:31;100639.94;;;15.39;54.73
77159;BME280;66129;45.890;13.714;2023-05-10T05:28:56;100583.19;;;15.05;54.30
77159;BME280;66129;45.890;13.714;2023-05-10T05:31:27;100671.78;;;15.49;54.61
77159;BME280;66129;45.890;13.714;2023-05-10T05:33:53;100604.69;;;15.10;55.01
77159;BME280;66129;45.890;13.714;2023-05-10T05:36:21;100632.22;;;15.35;54.47
77159;BME280;66129;45.890;13.714;2023-05-10T05:38:58;100632.22;;;15.38;54.28
77159;BME280;66129;45.890;13.714;2023-05-10T05:41:31;100578.88;;;15.07;54.70
77159;BME280;66129;45.890;13.714;2023-05-10T05:44:04;100641.69;;;15.43;54.82
77159;BME280;66129;45.890;13.714;2023-05-10T05:46:38;100589.19;;;15.14;55.09
77159;BME280;66129;45.890;13.714;2023-05-10T05:49:13;100590.03;;;15.16;55.99
77159;BME280;66129;45.890;13.714;2023-05-10T05:51:39;100601.22;;;15.17;55.89
77159;BME280;66129;45.890;13.714;2023-05-10T05:54:12;100634.78;;;15.36;55.84
77159;BME280;66129;45.890;13.714;2023-05-10T05:56:37;100591.75;;;15.11;55.42
77159;BME280;66129;45.890;13.714;2023-05-10T05:59:03;100678.69;;;15.58;56.02
77159;BME280;66129;45.890;13.714;2023-05-10T06:01:28;100662.34;;;15.52;56.18
77159;BME280;66129;45.890;13.714;2023-05-10T06:03:54;100664.00;;;15.65;55.42
77159;BME280;66129;45.890;13.714;2023-05-10T06:06:19;100622.75;;;15.32;56.07
77159;BME280;66129;45.890;13.714;2023-05-10T06:08:45;100651.13;;;15.52;55.92
77159;BME280;66129;45.890;13.714;2023-05-10T06:11:10;100641.69;;;15.40;55.85
77159;BME280;66129;45.890;13.714;2023-05-10T06:13:35;100627.91;;;15.32;56.42
77159;BME280;66129;45.890;13.714;2023-05-10T06:16:02;100633.94;;;15.42;56.50
77159;BME280;66129;45.890;13.714;2023-05-10T06:18:28;100613.25;;;15.37;56.55
77159;BME280;66129;45.890;13.714;2023-05-10T06:20:53;100626.19;;;15.43;56.60
77159;BME280;66129;45.890;13.714;2023-05-10T06:23:19;100686.38;;;15.76;56.62
77159;BME280;66129;45.890;13.714;2023-05-10T06:25:46;100616.72;;;15.32;56.52
77159;BME280;66129;45.890;13.714;2023-05-10T06:28:12;100666.59;;;15.71;56.28
77159;BME280;66129;45.890;13.714;2023-05-10T06:30:37;100680.34;;;15.74;56.23
77159;BME280;66129;45.890;13.714;2023-05-10T06:33:03;100620.16;;;15.44;56.13
77159;BME280;66129;45.890;13.714;2023-05-10T06:35:29;100686.38;;;15.79;57.21
77159;BME280;66129;45.890;13.714;2023-05-10T06:37:54;100688.09;;;15.74;56.46
77159;BME280;66129;45.890;13.714;2023-05-10T06:40:20;100663.16;;;15.63;56.87
77159;BME280;66129;45.890;13.714;2023-05-10T06:42:46;100657.16;;;15.58;56.81
77159;BME280;66129;45.890;13.714;2023-05-10T06:45:13;100689.81;;;15.84;57.25
77159;BME280;66129;45.890;13.714;2023-05-10T06:47:39;100648.53;;;15.57;57.64
77159;BME280;66129;45.890;13.714;2023-05-10T06:50:06;100640.81;;;15.50;58.71
77159;BME280;66129;45.890;13.714;2023-05-10T06:52:32;100681.22;;;15.72;58.58
77159;BME280;66129;45.890;13.714;2023-05-10T06:54:57;100622.72;;;15.49;59.09
77159;BME280;66129;45.890;13.714;2023-05-10T06:57:23;100684.66;;;15.78;58.78
77159;BME280;66129;45.890;13.714;2023-05-10T06:59:49;100682.94;;;15.76;58.87
77159;BME280;66129;45.890;13.714;2023-05-10T07:02:15;100688.94;;;15.82;59.60
77159;BME280;66129;45.890;13.714;2023-05-10T07:04:40;100660.56;;;15.67;59.75
77159;BME280;66129;45.890;13.714;2023-05-10T07:07:05;100632.19;;;15.50;59.53
77159;BME280;66129;45.890;13.714;2023-05-10T07:09:31;100688.06;;;15.86;59.64
77159;BME280;66129;45.890;13.714;2023-05-10T07:11:57;100644.22;;;15.62;58.90
77159;BME280;66129;45.890;13.714;2023-05-10T07:14:37;100607.25;;;15.40;59.10
77159;BME280;66129;45.890;13.714;2023-05-10T07:17:13;100656.22;;;15.78;58.96
77159;BME280;66129;45.890;13.714;2023-05-10T07:19:39;100618.38;;;15.61;58.41
77159;BME280;66129;45.890;13.714;2023-05-10T07:22:07;100641.56;;;15.80;57.67
77159;BME280;66129;45.890;13.714;2023-05-10T07:24:44;100613.19;;;15.64;57.20
77159;BME280;66129;45.890;13.714;2023-05-10T07:27:19;100636.34;;;15.91;57.12
77159;BME280;66129;45.890;13.714;2023-05-10T07:29:44;100690.50;;;16.24;57.11
77159;BME280;66129;45.890;13.714;2023-05-10T07:32:13;100641.53;;;15.89;56.88
77159;BME280;66129;45.890;13.714;2023-05-10T07:34:41;100632.94;;;15.89;56.68
77159;BME280;66129;45.890;13.714;2023-05-10T07:37:16;100658.69;;;16.10;56.84
77159;BME280;66129;45.890;13.714;2023-05-10T07:39:41;100644.97;;;15.94;56.47
77159;BME280;66129;45.890;13.714;2023-05-10T07:42:07;100704.31;;;16.30;56.55
77159;BME280;66129;45.890;13.714;2023-05-10T07:44:33;100699.94;;;16.44;56.41
77159;BME280;66129;45.890;13.714;2023-05-10T07:46:58;100632.84;;;16.04;57.47
77159;BME280;66129;45.890;13.714;2023-05-10T07:49:53;100671.53;;;16.25;57.05
77159;BME280;66129;45.890;13.714;2023-05-10T07:52:19;100694.81;;;16.40;57.63
77159;BME280;66129;45.890;13.714;2023-05-10T07:54:47;100650.94;;;16.07;58.12
77159;BME280;66129;45.890;13.714;2023-05-10T07:57:33;100699.16;;;16.18;58.31
77159;BME280;66129;45.890;13.714;2023-05-10T08:03:12;100669.06;;;15.98;58.95
77159;BME280;66129;45.890;13.714;2023-05-10T08:05:44;100648.47;;;15.80;59.03
77159;BME280;66129;45.890;13.714;2023-05-10T08:08:15;100671.69;;;15.99;59.36
77159;BME280;66129;45.890;13.714;2023-05-10T08:10:49;100623.53;;;15.64;59.78
77159;BME280;66129;45.890;13.714;2023-05-10T08:13:17;100623.56;;;15.52;60.63
77159;BME280;66129;45.890;13.714;2023-05-10T08:15:43;100672.63;;;15.68;61.48
77159;BME280;66129;45.890;13.714;2023-05-10T08:21:59;100684.72;;;15.59;62.32
77159;BME280;66129;45.890;13.714;2023-05-10T08:24:40;100639.09;;;15.31;61.87
77159;BME280;66129;45.890;13.714;2023-05-10T08:34:28;100718.28;;;15.60;62.87
77159;BME280;66129;45.890;13.714;2023-05-10T08:36:56;100652.00;;;15.18;63.78
77159;BME280;66129;45.890;13.714;2023-05-10T08:39:22;100700.22;;;15.35;62.92
77159;BME280;66129;45.890;13.714;2023-05-10T08:45:04;100677.81;;;15.18;65.03
77159;BME280;66129;45.890;13.714;2023-05-10T08:47:30;100669.22;;;15.14;64.78
77159;BME280;66129;45.890;13.714;2023-05-10T08:49:56;100703.66;;;15.31;65.53
77159;BME280;66129;45.890;13.714;2023-05-10T08:52:32;100741.56;;;15.37;66.35
77159;BME280;66129;45.890;13.714;2023-05-10T08:54:58;100732.97;;;15.32;66.23
77159;BME280;66129;45.890;13.714;2023-05-10T08:57:23;100731.19;;;15.20;66.39
77159;BME280;66129;45.890;13.714;2023-05-10T08:59:49;100699.31;;;14.87;65.87
77159;BME280;66129;45.890;13.714;2023-05-10T09:02:15;100682.97;;;14.80;66.13
77159;BME280;66129;45.890;13.714;2023-05-10T09:04:51;100723.44;;;15.02;66.40
77159;BME280;66129;45.890;13.714;2023-05-10T09:07:16;100713.13;;;14.96;65.69
77159;BME280;66129;45.890;13.714;2023-05-10T09:09:42;100689.84;;;14.74;66.11
77159;BME280;66129;45.890;13.714;2023-05-10T09:12:09;100740.63;;;14.91;67.47
77159;BME280;66129;45.890;13.714;2023-05-10T09:14:37;100762.16;;;15.05;66.48
77159;BME280;66129;45.890;13.714;2023-05-10T09:17:24;100742.34;;;14.91;66.87
77159;BME280;66129;45.890;13.714;2023-05-10T09:19:50;100694.13;;;14.51;67.53
77159;BME280;66129;45.890;13.714;2023-05-10T09:22:22;100737.16;;;14.74;68.18
77159;BME280;66129;45.890;13.714;2023-05-10T09:24:47;100709.56;;;14.49;68.31
77159;BME280;66129;45.890;13.714;2023-05-10T09:27:13;100718.16;;;14.45;69.76
77159;BME280;66129;45.890;13.714;2023-05-10T09:29:42;100712.13;;;14.46;70.17
77159;BME280;66129;45.890;13.714;2023-05-10T09:32:07;100778.44;;;14.71;70.72
77159;BME280;66129;45.890;13.714;2023-05-10T09:34:43;100722.44;;;14.41;70.58
77159;BME280;66129;45.890;13.714;2023-05-10T09:37:10;100731.88;;;14.42;71.31
77159;BME280;66129;45.890;13.714;2023-05-10T09:39:37;100696.66;;;14.35;71.00
77159;BME280;66129;45.890;13.714;2023-05-10T09:42:05;100700.06;;;14.34;71.53
77159;BME280;66129;45.890;13.714;2023-05-10T09:44:32;100768.97;;;14.72;71.45
77159;BME280;66129;45.890;13.714;2023-05-10T09:47:02;100747.47;;;14.73;71.00
77159;BME280;66129;45.890;13.714;2023-05-10T09:49:28;100742.25;;;14.58;71.30
77159;BME280;66129;45.890;13.714;2023-05-10T09:52:06;100675.97;;;14.26;70.28
77159;BME280;66129;45.890;13.714;2023-05-10T09:54:32;100727.63;;;14.52;70.26
77159;BME280;66129;45.890;13.714;2023-05-10T09:56:58;100700.97;;;14.47;71.57
77159;BME280;66129;45.890;13.714;2023-05-10T09:59:26;100703.56;;;14.50;72.12
77159;BME280;66129;45.890;13.714;2023-05-10T10:01:55;100769.88;;;14.87;71.34
77159;BME280;66129;45.890;13.714;2023-05-10T10:04:21;100716.47;;;14.56;71.52
77159;BME280;66129;45.890;13.714;2023-05-10T10:07:03;100724.22;;;14.59;71.45
77159;BME280;66129;45.890;13.714;2023-05-10T10:09:29;100717.34;;;14.55;72.41
77159;BME280;66129;45.890;13.714;2023-05-10T10:12:02;100720.75;;;14.51;71.47
77159;BME280;66129;45.890;13.714;2023-05-10T10:14:31;100681.13;;;14.30;72.51
77159;BME280;66129;45.890;13.714;2023-05-10T10:16:56;100708.69;;;14.43;73.71
77159;BME280;66129;45.890;13.714;2023-05-10T10:19:25;100733.63;;;14.48;73.92
77159;BME280;66129;45.890;13.714;2023-05-10T10:21:51;100737.97;;;14.58;74.22
77159;BME280;66129;45.890;13.714;2023-05-10T10:24:17;100753.50;;;14.69;73.43
77159;BME280;66129;45.890;13.714;2023-05-10T10:26:43;100709.56;;;14.49;73.57
77159;BME280;66129;45.890;13.714;2023-05-10T10:32:03;100734.50;;;14.55;74.64
77159;BME280;66129;45.890;13.714;2023-05-10T10:34:35;100694.03;;;14.30;73.96
77159;BME280;66129;45.890;13.714;2023-05-10T10:37:05;100688.00;;;14.27;74.13
77159;BME280;66129;45.890;13.714;2023-05-10T10:39:34;100675.06;;;14.13;74.15
77159;BME280;66129;45.890;13.714;2023-05-10T10:42:02;100752.59;;;14.59;75.00
77159;BME280;66129;45.890;13.714;2023-05-10T10:49:51;100731.88;;;14.42;75.30
77159;BME280;66129;45.890;13.714;2023-05-10T10:55:20;100675.06;;;14.15;74.72
77159;BME280;66129;45.890;13.714;2023-05-10T10:57:52;100656.91;;;13.95;75.42
77159;BME280;66129;45.890;13.714;2023-05-10T11:02:50;100720.72;;;14.45;76.32
77159;BME280;66129;45.890;13.714;2023-05-10T11:05:46;100744.00;;;14.62;75.85
77159;BME280;66129;45.890;13.714;2023-05-10T11:08:27;100726.78;;;14.53;76.08
77159;BME280;66129;45.890;13.714;2023-05-10T11:13:41;100721.66;;;14.59;76.60
77159;BME280;66129;45.890;13.714;2023-05-10T11:16:23;100744.03;;;14.78;75.78
77159;BME280;66129;45.890;13.714;2023-05-10T11:19:06;100737.19;;;14.79;75.96
77159;BME280;66129;45.890;13.714;2023-05-10T11:21:48;100736.31;;;14.84;76.74
77159;BME280;66129;45.890;13.714;2023-05-10T11:24:19;100667.41;;;14.37;77.23
77159;BME280;66129;45.890;13.714;2023-05-10T11:26:45;100701.84;;;14.55;75.97
77159;BME280;66129;45.890;13.714;2023-05-10T11:29:12;100698.41;;;14.56;76.05
77159;BME280;66129;45.890;13.714;2023-05-10T11:31:49;100639.00;;;14.28;76.85
77159;BME280;66129;45.890;13.714;2023-05-10T11:34:31;100663.13;;;14.42;77.10
77159;BME280;66129;45.890;13.714;2023-05-10T11:37:08;100703.56;;;14.61;75.67
77159;BME280;66129;45.890;13.714;2023-05-10T11:39:48;100727.72;;;14.81;76.40
77159;BME280;66129;45.890;13.714;2023-05-10T11:42:30;100675.19;;;14.53;75.78
77159;BME280;66129;45.890;13.714;2023-05-10T11:44:56;100645.91;;;14.32;76.50
77159;BME280;66129;45.890;13.714;2023-05-10T11:47:24;100723.44;;;14.83;75.85
77159;BME280;66129;45.890;13.714;2023-05-10T11:50:00;100724.31;;;14.98;77.00
77159;BME280;66129;45.890;13.714;2023-05-10T11:52:25;100713.94;;;14.83;76.20
77159;BME280;66129;45.890;13.714;2023-05-10T11:54:54;100638.22;;;14.44;76.47
77159;BME280;66129;45.890;13.714;2023-05-10T11:57:32;100676.09;;;14.67;75.70
77159;BME280;66129;45.890;13.714;2023-05-10T12:00:05;100629.59;;;14.46;76.31
77159;BME280;66129;45.890;13.714;2023-05-10T12:02:34;100633.91;;;14.53;76.35
77159;BME280;66129;45.890;13.714;2023-05-10T12:05:03;100710.53;;;14.96;75.54
77159;BME280;66129;45.890;13.714;2023-05-10T12:07:33;100668.34;;;14.82;76.72
77159;BME280;66129;45.890;13.714;2023-05-10T12:10:14;100676.09;;;14.76;75.71
77159;BME280;66129;45.890;13.714;2023-05-10T12:12:54;100643.38;;;14.62;75.81
77159;BME280;66129;45.890;13.714;2023-05-10T12:15:34;100727.75;;;14.97;77.46
77159;BME280;66129;45.890;13.714;2023-05-10T12:18:01;100649.41;;;14.71;78.27
77159;BME280;66129;45.890;13.714;2023-05-10T12:20:34;100623.59;;;14.58;77.79
77159;BME280;66129;45.890;13.714;2023-05-10T12:23:02;100627.91;;;14.72;79.05
77159;BME280;66129;45.890;13.714;2023-05-10T12:25:41;100632.22;;;14.79;78.87
77159;BME280;66129;45.890;13.714;2023-05-10T12:28:08;100722.63;;;15.33;80.19
77159;BME280;66129;45.890;13.714;2023-05-10T12:30:40;100655.47;;;15.15;78.09
77159;BME280;66129;45.890;13.714;2023-05-10T12:33:14;100666.63;;;15.16;76.22
77159;BME280;66129;45.890;13.714;2023-05-10T12:36:05;100643.41;;;15.11;76.50
77159;BME280;66129;45.890;13.714;2023-05-10T12:38:46;100625.34;;;15.01;77.22
77159;BME280;66129;45.890;13.714;2023-05-10T12:41:17;100622.75;;;15.23;76.20
77159;BME280;66129;45.890;13.714;2023-05-10T12:43:58;100627.03;;;15.23;75.56
77159;BME280;66129;45.890;13.714;2023-05-10T12:46:23;100637.38;;;15.41;75.50
77159;BME280;66129;45.890;13.714;2023-05-10T12:48:52;100636.50;;;15.52;75.38
77159;BME280;66129;45.890;13.714;2023-05-10T12:51:20;100615.84;;;15.31;73.71
77159;BME280;66129;45.890;13.714;2023-05-10T12:53:56;100661.47;;;15.59;73.90
77159;BME280;66129;45.890;13.714;2023-05-10T12:56:24;100607.25;;;15.19;74.34
77159;BME280;66129;45.890;13.714;2023-05-10T12:58:58;100593.50;;;15.12;75.18
77159;BME280;66129;45.890;13.714;2023-05-10T13:01:24;100596.94;;;15.17;74.25
77159;BME280;66129;45.890;13.714;2023-05-10T13:03:56;100641.66;;;15.52;74.38
77159;BME280;66129;45.890;13.714;2023-05-10T13:06:24;100648.56;;;15.50;73.45
77159;BME280;66129;45.890;13.714;2023-05-10T13:09:05;100614.97;;;15.25;74.33
77159;BME280;66129;45.890;13.714;2023-05-10T13:11:33;100638.25;;;15.43;73.47
77159;BME280;66129;45.890;13.714;2023-05-10T13:17:37;100630.47;;;15.41;73.92
77159;BME280;66129;45.890;13.714;2023-05-10T13:27:15;100571.97;;;15.13;73.44
77159;BME280;66129;45.890;13.714;2023-05-10T13:29:40;100615.84;;;15.37;73.86
77159;BME280;66129;45.890;13.714;2023-05-10T13:36:00;100634.78;;;15.54;73.17
77159;BME280;66129;45.890;13.714;2023-05-10T13:39:02;100570.25;;;15.18;73.24
77159;BME280;66129;45.890;13.714;2023-05-10T13:41:54;100576.25;;;15.22;73.48
77159;BME280;66129;45.890;13.714;2023-05-10T13:44:20;100596.03;;;15.26;73.94
77159;BME280;66129;45.890;13.714;2023-05-10T13:47:03;100618.41;;;15.45;74.52
77159;BME280;66129;45.890;13.714;2023-05-10T13:52:40;100619.31;;;15.41;74.34
77159;BME280;66129;45.890;13.714;2023-05-10T13:55:08;100554.75;;;15.06;73.82
77159;BME280;66129;45.890;13.714;2023-05-10T13:57:37;100583.19;;;15.14;73.39